Relevés horaires Jungfraujoch (Suisse)


Relevés horaires à Jungfraujoch - Dimanche 14 Oct. 2012
Heure UTC1 Température [°C] Vent [km/h] Hum. [%] Pres.4 [hPa] Visi. [Km] Nébu. [octa] Préc.5 [mm] Cond.
2m. Res. Ros. Dir.2 Vit. Moy. Raf.3
23:00 -7.6 -16.8 -9.2 SSE 33.3 35.2 44.4 88 700(-1.1/3h) -- -- -- --
22:00 -7.4 -16.8 -7.7 S 35.2 40.7 50.0 98 700(-0.4/3h) -- -- -- --
21:00 -7.8 -17.3 -7.9 S 35.2 42.6 53.7 99 700(-0.3/3h) -- -- -- --
20:00 -7.9 -17.2 -8.3 SSE 33.3 42.6 50.0 97 700(0.1/3h) -- -- -- --
19:00 -8.0 -18.2 -8.3 SSE 40.7 40.7 53.7 98 700(0.2/3h) -- -- -- --
18:00 -7.8 -17.3 -7.9 ESE 35.2 53.7 79.6 99 700(0.1/3h) 0 -- -- Légère neige continue
17:00 -7.9 -18 -8.0 ESE 40.7 50.0 68.5 99 700(-0.2/3h) -- -- -- --
16:00 -7.8 -18.8 -7.9 ESE 50.0 51.9 79.6 99 700(-0.9/3h) -- -- -- --
15:00 -8.0 -19 -8.6 ESE 50.0 53.7 74.1 95 700(-0.7/3h) 0 -- -- Brouillard, ciel pas visible, pas de changement
14:00 -8.4 -19.6 -8.7 ESE 50.0 50.0 68.5 98 700(-1.3/3h) -- -- -- --
13:00 -8.4 -19.1 -8.8 SE 44.4 44.4 59.3 97 700(-1.2/3h) -- -- -- --
12:00 -7.9 -18.4 -8.7 SSE 44.4 50.0 59.3 94 700(-1.5/3h) 0 -- -- Brouillard de plus en plus épais, ciel pas visible
11:00 -7.6 -17.6 -8.9 SSE 40.7 48.2 57.4 90 700(-1.2/3h) -- -- -- --
10:00 -8.4 -19.6 -9.0 SE 50.0 50.0 57.4 95 700(-1.4/3h) -- -- -- --
09:00 -8.6 -19 -9.3 SE 40.7 40.7 59.3 95 700(-1.3/3h) >70 7/8 -- --
08:00 -8.8 -17.6 -11.4 SE 27.8 31.5 55.6 81 700(-1.2/3h) -- -- -- --
07:00 -7.7 -15.7 -13.7 ESE 24.1 24.1 59.3 62 700(-0.9/3h) -- -- -- --
06:00 -7.8 -14.4 -12.9 E 16.7 16.7 53.7 67 700(-0.8/3h) 50 3/8 -- --
05:00 -8.3 -13 -13.4 NNO 9.3 11.1 48.2 67 700(-0.8/3h) -- -- -- --
04:00 -8.1 -12 -13.2 N 7.4 14.8 44.4 67 700(-1.0/3h) -- -- -- --
03:00 -8.3 -11.4 -13.7 E 5.6 13.0 53.7 65 700(-1.0/3h) -- -- -- --
02:00 -8.5 -13.2 -13.8 ENE 9.3 9.3 46.3 65 700(-0.8/3h) -- -- -- --
01:00 -8.4 -11.5 -14.4 ENE 5.6 11.1 44.4 62 700(-0.8/3h) -- -- -- --
00:00 -8.6 -11.7 -20.1 ONO 5.6 16.7 59.3 39 700(-0.7/3h) -- -- -- --

1 Coordinated Universal Time. Actuellement il est 23:00 locale et 21:00 UTC.

2 Le vent souffle depuis la direction indiquée vers la direction oposée.

3 Les rafales max. sont disponible 40 min après l'heure du relevé.

4 Pour les stations d'altitude (plus de 600m) le géopotentiel du niveau le plus proche de la pression obligatoire est indiqué.

5 Les stations disposant d'un diffuseur peuvent indiquer "trace". Cela signifie que des précipitations ont touchés le sol mais que la quantité est inférieure à 0.1 mm.

Copyright

Les données affichées sur cette page sont la propriété exclusive de Météo Suisse.

Récapitulatif de la journée
Température [°C] Vent [km/h] Ensoleillement4 [h] Precipitations totale5 [mm] Pression [Hpa]
Min1 Max.2 Moy.3 Max. Min Max.
-9.7 -6.9 35.1 79.6 0 h 24 min 0 700.0 700.0

1 Température minimale relevée entre 18:00 UTC la veille et 18:00 UTC le jour donné.

2 Température maximale relevée entre 06:00 UTC le jour donné et 06:00 UTC le lendemain.

3 Vent moyen de la journée basé sur les relevés horaires.

4 Ensoleillement en heures relevé entre 06:00 UTC la veille et 06:00 UTC le jour donné.

5 Précipitations totales tombées entre 06:00 UTC la jour donné et 06:00 UTC le lendemain.

Graphiques horaires